Time;durP1;ratioP1;P1;durP2;ratioP2;P2;SDS_P1;SDS_P2;PMS_P1;PMS_P2;Temp;Humidity;BMP_temperature;BMP_pressure;BME280_temperature;BME280_humidity;BME280_pressure;Samples;Min_cycle;Max_cycle;Signal;HPM_P1;HPM_P2
2023/09/11 00:00:24;;;;;;;355.17;336.42;;;25.90;99.90;;;;;;5051617;28;20036;-75
2023/09/11 00:02:50;;;;;;;337.65;320.17;;;25.80;99.90;;;;;;5052861;28;20033;-75
2023/09/11 00:05:16;;;;;;;324.88;308.10;;;25.80;99.90;;;;;;5052217;28;20029;-74
2023/09/11 00:07:42;;;;;;;286.85;272.48;;;25.70;99.90;;;;;;5052541;28;20029;-74
2023/09/11 00:10:09;;;;;;;344.15;325.75;;;25.70;99.90;;;;;;5052504;28;20092;-75
2023/09/11 00:12:35;;;;;;;321.80;305.15;;;25.60;99.90;;;;;;5032537;28;20037;-75
2023/09/11 00:15:01;;;;;;;337.63;320.00;;;25.70;99.90;;;;;;5032110;28;20614;-74
2023/09/11 00:17:27;;;;;;;314.15;298.02;;;25.60;99.90;;;;;;5031228;28;20480;-74
2023/09/11 00:19:54;;;;;;;373.20;353.17;;;25.50;99.90;;;;;;5031402;28;20037;-75
2023/09/11 00:22:20;;;;;;;277.05;263.50;;;25.50;99.90;;;;;;5032053;28;20025;-74
2023/09/11 00:24:46;;;;;;;310.67;294.83;;;25.50;99.90;;;;;;5032410;28;20032;-75
2023/09/11 00:27:12;;;;;;;323.33;306.38;;;25.60;99.90;;;;;;5031839;28;20037;-75
2023/09/11 00:29:38;;;;;;;345.92;327.65;;;25.60;99.90;;;;;;5032490;28;20052;-74
2023/09/11 00:32:04;;;;;;;390.38;369.17;;;25.60;99.90;;;;;;5030231;28;20037;-75
2023/09/11 00:34:31;;;;;;;321.38;304.80;;;25.60;99.90;;;;;;5032196;28;20038;-74
2023/09/11 00:36:57;;;;;;;304.48;289.00;;;25.60;99.90;;;;;;5031674;28;20045;-74
2023/09/11 00:39:23;;;;;;;377.90;357.60;;;25.60;99.90;;;;;;5032192;28;20487;-74
2023/09/11 00:41:49;;;;;;;462.05;435.40;;;25.50;99.90;;;;;;5031537;28;20479;-74
2023/09/11 00:44:15;;;;;;;475.90;448.73;;;25.50;99.90;;;;;;5032227;28;20032;-74
2023/09/11 00:46:42;;;;;;;493.63;464.88;;;25.40;99.90;;;;;;5031389;28;20080;-74
2023/09/11 00:49:08;;;;;;;484.52;456.33;;;25.40;99.90;;;;;;5030647;28;20487;-75
2023/09/11 00:51:34;;;;;;;446.48;421.50;;;25.40;99.90;;;;;;5030571;28;20113;-74
2023/09/11 00:54:00;;;;;;;405.15;383.25;;;25.30;99.90;;;;;;5030972;28;20025;-75
2023/09/11 00:56:26;;;;;;;439.83;415.27;;;25.30;99.90;;;;;;5029856;28;20053;-74
2023/09/11 00:58:53;;;;;;;402.60;380.90;;;25.20;99.90;;;;;;5031929;28;20038;-74
2023/09/11 01:01:20;;;;;;;421.02;397.45;;;25.10;99.90;;;;;;5031258;28;20034;-74
2023/09/11 01:03:46;;;;;;;357.80;338.98;;;25.00;99.90;;;;;;5032131;28;20587;-74
2023/09/11 01:06:12;;;;;;;327.80;311.27;;;25.10;99.90;;;;;;5030488;28;20037;-74
2023/09/11 01:08:38;;;;;;;297.00;282.38;;;25.10;99.90;;;;;;5030755;28;20483;-74
2023/09/11 01:11:04;;;;;;;300.00;285.15;;;25.10;99.90;;;;;;5030107;28;20396;-75
2023/09/11 01:13:31;;;;;;;302.73;287.60;;;25.10;99.90;;;;;;5031737;28;20038;-75
2023/09/11 01:16:29;;;;;;;276.02;262.25;;;25.10;99.90;;;;;;5029946;28;20084;-75
2023/09/11 01:19:19;;;;;;;307.90;292.33;;;25.10;99.90;;;;;;5016185;28;20056;-75
2023/09/11 01:22:17;;;;;;;244.50;232.67;;;24.90;99.90;;;;;;5031703;28;20029;-74
2023/09/11 01:25:10;;;;;;;264.40;251.35;;;24.80;99.90;;;;;;5033316;28;20025;-74
2023/09/11 01:28:08;;;;;;;246.95;235.05;;;24.80;99.90;;;;;;4955241;29;20055;-74
2023/09/11 01:30:34;;;;;;;274.25;261.05;;;24.80;99.90;;;;;;4949521;28;20065;-75
2023/09/11 01:33:00;;;;;;;262.77;249.77;;;24.70;99.90;;;;;;4993754;28;20047;-74
2023/09/11 01:35:26;;;;;;;256.75;243.93;;;24.70;99.90;;;;;;4977362;28;20559;-75
2023/09/11 01:37:55;;;;;;;254.02;241.63;;;24.70;99.90;;;;;;5009983;28;20049;-75
2023/09/11 01:40:21;;;;;;;263.60;250.85;;;24.60;99.90;;;;;;4993081;28;20034;-74
2023/09/11 01:42:49;;;;;;;287.67;273.10;;;24.60;99.90;;;;;;4977540;28;20466;-74
2023/09/11 01:45:15;;;;;;;264.48;251.38;;;24.60;99.90;;;;;;4976701;28;20145;-75
2023/09/11 01:47:45;;;;;;;266.40;253.15;;;24.60;99.90;;;;;;4993710;28;20027;-75
2023/09/11 01:50:15;;;;;;;237.82;226.32;;;24.50;99.90;;;;;;4993327;28;20046;-73
2023/09/11 01:52:42;;;;;;;309.75;294.20;;;24.40;99.90;;;;;;5009885;28;20396;-75
2023/09/11 01:55:08;;;;;;;227.88;216.98;;;24.40;99.90;;;;;;5009157;28;20039;-74
2023/09/11 01:57:34;;;;;;;254.93;242.48;;;24.40;99.90;;;;;;5009863;28;20050;-74
2023/09/11 02:00:01;;;;;;;247.82;235.90;;;24.30;99.90;;;;;;4993549;28;20042;-75
2023/09/11 02:02:29;;;;;;;259.25;246.68;;;24.30;99.90;;;;;;4992623;28;20042;-74
2023/09/11 02:04:55;;;;;;;264.35;251.45;;;24.30;99.90;;;;;;5005294;28;20038;-74
2023/09/11 02:07:22;;;;;;;300.27;285.25;;;24.30;99.90;;;;;;5033156;28;20476;-75
2023/09/11 02:09:48;;;;;;;330.33;313.33;;;24.20;99.90;;;;;;5034694;28;20101;-74
2023/09/11 02:12:14;;;;;;;310.40;294.92;;;24.20;99.90;;;;;;5034588;28;20037;-74
2023/09/11 02:14:40;;;;;;;320.10;304.25;;;24.30;99.90;;;;;;5034729;28;20045;-74
2023/09/11 02:17:06;;;;;;;304.38;289.10;;;24.30;99.90;;;;;;5033868;28;20026;-74
2023/09/11 02:19:32;;;;;;;340.30;323.23;;;24.20;99.90;;;;;;5034514;28;20044;-74
2023/09/11 02:21:59;;;;;;;399.73;378.67;;;24.30;99.90;;;;;;5034395;28;20034;-74
2023/09/11 02:24:25;;;;;;;374.75;355.27;;;24.30;99.90;;;;;;5034317;28;20479;-74
2023/09/11 02:26:53;;;;;;;368.80;349.77;;;24.20;99.90;;;;;;5034339;28;20040;-74
2023/09/11 02:29:19;;;;;;;297.75;282.60;;;24.10;99.90;;;;;;5034759;28;20049;-75
2023/09/11 02:31:45;;;;;;;329.42;312.88;;;24.00;99.90;;;;;;5027818;28;20034;-74
2023/09/11 02:34:11;;;;;;;294.88;279.92;;;23.90;99.90;;;;;;5014772;28;20026;-74
2023/09/11 02:36:37;;;;;;;353.55;335.27;;;23.90;99.90;;;;;;5026654;28;20033;-75
2023/09/11 02:39:04;;;;;;;334.95;317.65;;;24.00;99.90;;;;;;5032878;28;20427;-74
2023/09/11 02:41:30;;;;;;;293.60;278.27;;;24.00;99.90;;;;;;5034204;28;20030;-75
2023/09/11 02:43:56;;;;;;;278.30;264.30;;;24.00;99.90;;;;;;5034218;28;20488;-75
2023/09/11 02:46:22;;;;;;;218.02;207.35;;;24.00;99.90;;;;;;5033581;28;20041;-75
2023/09/11 02:48:48;;;;;;;228.27;217.10;;;23.90;99.90;;;;;;5034515;28;20034;-75
2023/09/11 02:51:14;;;;;;;201.90;191.88;;;23.90;99.90;;;;;;5032553;28;20042;-74
2023/09/11 02:53:41;;;;;;;222.05;211.30;;;23.80;99.90;;;;;;5034172;28;20044;-75
2023/09/11 02:56:07;;;;;;;230.35;219.15;;;23.80;99.90;;;;;;5032567;28;20029;-75
2023/09/11 02:58:33;;;;;;;210.93;200.52;;;23.90;99.90;;;;;;5034095;28;20045;-75
2023/09/11 03:01:03;;;;;;;187.55;178.05;;;23.90;99.90;;;;;;5033294;28;20408;-75
2023/09/11 03:03:29;;;;;;;235.27;223.30;;;23.90;99.90;;;;;;5032767;28;20040;-75
2023/09/11 03:05:58;;;;;;;180.88;171.88;;;23.80;99.90;;;;;;5032450;28;20029;-74
2023/09/11 03:08:24;;;;;;;120.95;114.85;;;23.80;99.90;;;;;;5033450;28;20032;-74
2023/09/11 03:10:50;;;;;;;129.85;123.05;;;23.80;99.90;;;;;;5032560;28;20037;-75
2023/09/11 03:13:16;;;;;;;120.07;113.50;;;23.70;99.90;;;;;;5033771;28;20021;-74
2023/09/11 03:15:45;;;;;;;120.57;114.35;;;23.70;99.90;;;;;;5032973;28;20045;-75
2023/09/11 03:18:11;;;;;;;122.00;115.75;;;23.70;99.90;;;;;;5033628;28;20049;-73
2023/09/11 03:20:38;;;;;;;196.95;187.20;;;23.60;99.90;;;;;;5032174;28;20026;-76
2023/09/11 03:23:04;;;;;;;201.73;191.70;;;23.70;99.90;;;;;;5048210;28;20034;-76
2023/09/11 03:25:34;;;;;;;179.52;170.27;;;23.70;99.90;;;;;;5033331;28;20030;-75
2023/09/11 03:28:01;;;;;;;229.15;217.50;;;23.60;99.90;;;;;;5033990;28;20045;-75
2023/09/11 03:30:27;;;;;;;131.10;124.45;;;23.50;99.90;;;;;;5047781;28;20036;-75
2023/09/11 03:32:53;;;;;;;131.77;125.20;;;23.50;99.90;;;;;;5033094;28;20033;-74
2023/09/11 03:35:19;;;;;;;111.35;105.78;;;23.50;99.90;;;;;;5032904;28;20030;-75
2023/09/11 03:37:45;;;;;;;120.07;113.93;;;23.50;99.90;;;;;;5031784;28;20025;-75
2023/09/11 03:40:13;;;;;;;118.25;112.28;;;23.50;99.90;;;;;;5032831;28;20053;-75
2023/09/11 03:42:40;;;;;;;254.13;241.52;;;23.50;99.90;;;;;;5033445;28;20068;-75
2023/09/11 03:45:07;;;;;;;173.23;164.75;;;23.30;99.90;;;;;;5032554;28;20408;-75
2023/09/11 03:47:33;;;;;;;129.23;122.78;;;23.30;99.90;;;;;;5032794;28;20052;-75
2023/09/11 03:50:02;;;;;;;159.88;151.95;;;23.20;99.90;;;;;;5033307;28;20048;-75
2023/09/11 03:52:28;;;;;;;120.10;113.95;;;23.20;99.90;;;;;;5031263;28;20025;-75
2023/09/11 03:54:54;;;;;;;126.43;120.05;;;23.20;99.90;;;;;;5032902;28;20379;-75
2023/09/11 03:57:20;;;;;;;164.35;156.25;;;23.20;99.90;;;;;;5032438;28;20025;-75
2023/09/11 03:59:46;;;;;;;172.23;163.75;;;23.20;99.90;;;;;;5031913;28;20038;-75
2023/09/11 04:02:12;;;;;;;189.30;180.30;;;23.20;99.90;;;;;;5031890;28;20029;-75
2023/09/11 04:04:38;;;;;;;108.45;102.82;;;23.30;99.90;;;;;;5032424;28;20033;-75
2023/09/11 04:07:04;;;;;;;206.00;195.82;;;23.30;99.90;;;;;;5032398;28;20029;-75
2023/09/11 04:09:32;;;;;;;159.25;150.80;;;23.10;99.90;;;;;;5033187;28;20046;-75
2023/09/11 04:12:00;;;;;;;147.88;140.63;;;23.00;99.90;;;;;;5032290;28;20036;-75
2023/09/11 04:14:26;;;;;;;114.82;108.88;;;23.00;99.90;;;;;;5032390;28;20053;-75
2023/09/11 04:16:52;;;;;;;108.25;102.47;;;23.00;99.90;;;;;;5031893;28;20033;-74
2023/09/11 04:19:18;;;;;;;98.50;93.32;;;23.00;99.90;;;;;;5032267;28;20053;-75
2023/09/11 04:21:44;;;;;;;98.63;93.57;;;23.00;99.90;;;;;;5032070;28;20029;-75
2023/09/11 04:24:12;;;;;;;95.40;90.38;;;23.00;99.90;;;;;;5032321;28;20033;-75
2023/09/11 04:26:44;;;;;;;96.70;91.75;;;23.00;99.90;;;;;;5032271;28;20404;-75
2023/09/11 04:29:10;;;;;;;104.60;99.07;;;23.00;99.90;;;;;;5032618;28;20048;-75
2023/09/11 04:31:37;;;;;;;95.82;90.95;;;23.10;99.90;;;;;;5031447;28;20404;-75
2023/09/11 04:34:03;;;;;;;73.30;69.55;;;23.10;99.90;;;;;;5032006;28;20029;-75
2023/09/11 04:36:29;;;;;;;64.43;61.00;;;23.10;99.90;;;;;;5032015;28;20044;-75
2023/09/11 04:38:56;;;;;;;70.47;66.63;;;23.00;99.90;;;;;;5030833;28;20037;-75
2023/09/11 04:41:22;;;;;;;63.58;60.08;;;22.90;99.90;;;;;;5031770;28;20048;-75
2023/09/11 04:43:48;;;;;;;61.75;58.25;;;22.90;99.90;;;;;;5032167;28;20033;-76
2023/09/11 04:46:16;;;;;;;65.40;61.70;;;22.70;99.90;;;;;;5031503;28;20045;-75
2023/09/11 04:48:42;;;;;;;66.53;62.60;;;22.70;99.90;;;;;;5030693;28;20037;-75
2023/09/11 04:51:08;;;;;;;69.10;65.10;;;22.80;99.90;;;;;;5031788;28;20045;-75
2023/09/11 04:53:34;;;;;;;77.07;72.82;;;22.80;99.90;;;;;;5032001;28;20025;-75
2023/09/11 04:56:00;;;;;;;61.80;58.10;;;22.90;99.90;;;;;;5031853;28;20029;-75
2023/09/11 04:58:26;;;;;;;67.55;63.63;;;22.90;99.90;;;;;;5032415;28;20103;-75
2023/09/11 05:00:53;;;;;;;89.07;84.13;;;22.80;99.90;;;;;;5035468;28;20045;-75
2023/09/11 05:03:19;;;;;;;73.90;69.78;;;22.80;99.90;;;;;;5034058;28;20046;-75
2023/09/11 05:05:46;;;;;;;67.55;63.47;;;22.70;99.90;;;;;;5035927;28;20025;-75
2023/09/11 05:08:13;;;;;;;54.50;51.40;;;22.60;99.90;;;;;;5036202;28;20460;-76
2023/09/11 05:10:42;;;;;;;55.78;52.30;;;22.40;99.90;;;;;;5035888;28;20041;-76
2023/09/11 05:13:10;;;;;;;48.45;45.47;;;22.40;99.90;;;;;;5036086;28;20038;-75
2023/09/11 05:15:36;;;;;;;48.75;45.72;;;22.40;99.90;;;;;;5035272;28;20041;-75
2023/09/11 05:18:03;;;;;;;51.63;48.47;;;22.40;99.90;;;;;;5035632;28;20029;-75
2023/09/11 05:20:30;;;;;;;54.38;51.17;;;22.40;99.90;;;;;;5034518;28;20045;-75
2023/09/11 05:22:57;;;;;;;52.10;49.00;;;22.40;99.90;;;;;;5034114;28;20025;-75
2023/09/11 05:25:23;;;;;;;51.25;47.95;;;22.40;99.90;;;;;;5017917;28;20041;-75
2023/09/11 05:27:49;;;;;;;68.53;64.50;;;22.30;99.90;;;;;;5035783;28;20033;-75
2023/09/11 05:30:15;;;;;;;61.50;57.92;;;22.40;99.90;;;;;;5034844;28;20036;-75
2023/09/11 05:32:41;;;;;;;65.38;61.50;;;22.40;99.90;;;;;;5021764;28;20026;-75
2023/09/11 05:35:08;;;;;;;58.58;55.08;;;22.40;99.90;;;;;;5015661;28;20476;-76
2023/09/11 05:37:34;;;;;;;61.42;57.78;;;22.50;99.90;;;;;;5035119;28;20040;-75
2023/09/11 05:40:00;;;;;;;57.63;54.15;;;22.50;99.90;;;;;;5035429;28;20034;-75
2023/09/11 05:42:27;;;;;;;57.80;54.20;;;22.40;99.90;;;;;;5035102;28;20025;-75
2023/09/11 05:44:53;;;;;;;55.25;51.80;;;22.40;99.90;;;;;;5035338;28;20032;-74
2023/09/11 05:47:19;;;;;;;55.42;51.65;;;22.40;99.90;;;;;;5034484;28;20427;-75
2023/09/11 05:49:45;;;;;;;53.40;50.10;;;22.40;99.90;;;;;;5035368;28;20033;-75
2023/09/11 05:52:11;;;;;;;47.42;44.42;;;22.40;99.90;;;;;;5034881;28;20044;-75
2023/09/11 05:54:37;;;;;;;46.45;43.10;;;22.20;99.90;;;;;;5035134;28;20056;-75
2023/09/11 05:57:04;;;;;;;52.58;49.25;;;22.10;99.90;;;;;;5034909;28;20030;-75
2023/09/11 05:59:30;;;;;;;46.65;43.40;;;22.20;99.90;;;;;;5035483;28;20041;-75
2023/09/11 06:01:56;;;;;;;45.33;42.50;;;22.30;99.90;;;;;;5033894;28;20040;-75
2023/09/11 06:04:23;;;;;;;46.63;43.15;;;22.30;99.90;;;;;;5034940;28;20379;-75
2023/09/11 06:06:49;;;;;;;43.90;41.20;;;22.40;99.90;;;;;;5034838;28;20033;-75
2023/09/11 06:09:15;;;;;;;50.53;47.25;;;22.40;99.90;;;;;;5034542;28;20050;-74
2023/09/11 06:11:41;;;;;;;71.40;67.20;;;22.40;99.90;;;;;;5034481;28;20046;-74
2023/09/11 06:14:07;;;;;;;53.38;50.22;;;22.40;99.90;;;;;;5034733;28;20045;-74
2023/09/11 06:16:33;;;;;;;69.15;65.25;;;22.50;99.90;;;;;;5034083;28;20038;-75
2023/09/11 06:19:00;;;;;;;47.33;44.17;;;22.50;99.90;;;;;;5034823;28;20025;-74
2023/09/11 06:21:26;;;;;;;43.58;40.15;;;22.50;99.90;;;;;;5034622;28;20038;-74
2023/09/11 06:23:52;;;;;;;40.75;38.08;;;22.60;99.90;;;;;;5034765;28;20030;-74
2023/09/11 06:26:18;;;;;;;44.38;41.35;;;22.60;99.90;;;;;;5034393;28;20041;-73
2023/09/11 06:28:44;;;;;;;40.33;37.53;;;22.60;99.90;;;;;;5034786;28;20025;-74
2023/09/11 06:31:10;;;;;;;37.20;34.38;;;22.50;99.90;;;;;;5033285;28;20040;-74
2023/09/11 06:33:36;;;;;;;40.38;37.38;;;22.40;99.90;;;;;;5033282;28;20384;-74
2023/09/11 06:36:03;;;;;;;43.40;40.42;;;22.30;99.90;;;;;;5032971;28;20034;-73
2023/09/11 06:38:29;;;;;;;44.53;41.58;;;22.30;99.90;;;;;;5033252;28;20045;-74
2023/09/11 06:40:55;;;;;;;40.10;36.97;;;22.30;99.90;;;;;;5033907;28;20044;-74
2023/09/11 06:43:21;;;;;;;44.58;41.53;;;22.30;99.90;;;;;;5034395;28;20033;-74
2023/09/11 06:45:56;;;;;;;36.45;33.55;;;22.40;99.90;;;;;;5033277;28;20037;-74
2023/09/11 06:48:22;;;;;;;36.38;33.70;;;22.20;99.90;;;;;;5034288;28;20499;-73
2023/09/11 06:50:51;;;;;;;37.30;34.40;;;22.10;99.90;;;;;;5032138;28;20056;-74
2023/09/11 06:53:17;;;;;;;38.47;35.85;;;21.90;99.90;;;;;;5033163;28;20495;-74
2023/09/11 06:55:44;;;;;;;34.95;32.08;;;21.70;99.90;;;;;;5033686;28;20036;-74
2023/09/11 06:58:10;;;;;;;38.58;35.95;;;21.50;99.90;;;;;;5034060;28;20040;-74
2023/09/11 07:00:36;;;;;;;38.22;35.50;;;21.60;99.90;;;;;;5032858;28;20045;-76
2023/09/11 07:03:02;;;;;;;47.45;44.35;;;21.50;99.90;;;;;;5033799;28;20033;-75
2023/09/11 07:05:28;;;;;;;63.92;59.92;;;21.40;99.90;;;;;;5033514;28;20033;-76
2023/09/11 07:07:54;;;;;;;68.57;64.35;;;21.40;99.90;;;;;;5032802;28;20384;-76
2023/09/11 07:10:21;;;;;;;88.30;83.53;;;21.50;99.90;;;;;;5033574;28;20029;-73
2023/09/11 07:12:47;;;;;;;58.17;54.30;;;21.60;99.90;;;;;;5033772;28;20037;-76
2023/09/11 07:15:13;;;;;;;41.65;38.70;;;21.60;99.90;;;;;;5032424;28;20049;-76
2023/09/11 07:17:39;;;;;;;46.72;43.35;;;21.70;99.90;;;;;;5032609;28;20026;-76
2023/09/11 07:20:06;;;;;;;47.92;44.55;;;21.70;99.90;;;;;;5033597;28;20140;-76
2023/09/11 07:22:32;;;;;;;50.55;47.00;;;21.80;99.90;;;;;;5032427;28;20049;-73
2023/09/11 07:24:58;;;;;;;87.75;82.50;;;21.80;99.90;;;;;;5033422;28;20046;-73
2023/09/11 07:27:32;;;;;;;91.70;86.50;;;21.90;99.90;;;;;;5033257;28;20032;-73
2023/09/11 07:30:03;;;;;;;51.63;48.35;;;22.00;99.90;;;;;;5015882;28;20056;-73
2023/09/11 07:32:30;;;;;;;44.35;41.17;;;22.10;99.90;;;;;;5040180;28;20034;-73
2023/09/11 07:34:56;;;;;;;45.15;41.97;;;22.30;99.90;;;;;;5033144;28;20399;-73
2023/09/11 07:37:23;;;;;;;36.83;33.97;;;22.20;99.90;;;;;;5051372;28;20033;-73
2023/09/11 07:39:49;;;;;;;37.80;35.08;;;22.00;99.90;;;;;;5051935;28;20049;-73
2023/09/11 07:42:15;;;;;;;49.83;46.47;;;22.00;99.90;;;;;;5052317;28;20589;-74
2023/09/11 07:44:42;;;;;;;38.35;35.75;;;22.10;99.90;;;;;;5053134;28;20040;-74
2023/09/11 07:47:08;;;;;;;41.22;38.38;;;22.30;99.90;;;;;;5067436;28;20029;-74
2023/09/11 07:49:35;;;;;;;40.42;37.47;;;22.20;99.90;;;;;;5053114;28;20029;-74
2023/09/11 07:52:01;;;;;;;43.78;40.55;;;22.20;99.90;;;;;;5052672;28;20490;-74
2023/09/11 07:54:27;;;;;;;39.38;36.78;;;22.20;99.90;;;;;;5052959;28;20414;-74
2023/09/11 07:56:53;;;;;;;45.95;42.97;;;22.20;99.90;;;;;;5052225;28;20033;-73
2023/09/11 07:59:20;;;;;;;39.05;36.22;;;22.10;99.90;;;;;;5052822;28;20040;-74
2023/09/11 08:01:46;;;;;;;40.65;37.78;;;21.90;99.90;;;;;;5052012;28;20033;-74
2023/09/11 08:04:12;;;;;;;33.53;31.05;;;22.10;99.90;;;;;;5052714;28;20032;-74
2023/09/11 08:06:38;;;;;;;40.00;37.30;;;22.30;99.90;;;;;;5052344;28;20032;-76
2023/09/11 08:09:04;;;;;;;39.75;37.03;;;22.30;99.90;;;;;;5052757;28;20029;-76
2023/09/11 08:11:31;;;;;;;35.10;32.65;;;22.20;99.90;;;;;;5052124;28;20036;-74
2023/09/11 08:13:57;;;;;;;38.45;35.67;;;22.10;99.90;;;;;;5052542;28;20049;-74
2023/09/11 08:16:23;;;;;;;37.80;34.92;;;22.20;99.90;;;;;;5050410;28;20040;-74
2023/09/11 08:18:49;;;;;;;36.30;33.35;;;22.20;99.90;;;;;;5052283;28;20049;-74
2023/09/11 08:21:19;;;;;;;36.47;33.55;;;22.20;99.90;;;;;;5051871;28;20049;-74
2023/09/11 08:23:45;;;;;;;39.10;36.38;;;22.20;99.90;;;;;;5052532;28;20040;-77
2023/09/11 08:26:11;;;;;;;35.53;32.75;;;22.20;99.90;;;;;;5052362;28;20037;-74
2023/09/11 08:28:37;;;;;;;35.53;33.05;;;22.10;99.90;;;;;;5051325;28;20025;-74
2023/09/11 08:31:03;;;;;;;35.33;32.67;;;22.30;99.90;;;;;;5051468;28;20407;-76
2023/09/11 08:33:30;;;;;;;46.97;43.65;;;22.50;99.90;;;;;;5052143;28;20502;-77
2023/09/11 08:35:56;;;;;;;50.80;47.28;;;22.50;99.90;;;;;;5050302;28;20126;-74
2023/09/11 08:38:22;;;;;;;37.53;34.85;;;22.60;99.90;;;;;;5052167;28;20062;-74
2023/09/11 08:40:48;;;;;;;48.47;44.78;;;22.50;99.90;;;;;;5051597;28;20059;-74
2023/09/11 08:43:14;;;;;;;41.20;38.28;;;22.70;99.90;;;;;;5050972;28;20033;-74
2023/09/11 08:45:40;;;;;;;44.28;41.22;;;22.70;99.90;;;;;;5033579;28;20407;-74
2023/09/11 08:48:11;;;;;;;57.97;54.38;;;22.60;99.90;;;;;;5052539;28;20399;-74
2023/09/11 08:50:56;;;;;;;41.65;38.80;;;22.60;99.90;;;;;;5051947;28;20357;-74
2023/09/11 08:53:22;;;;;;;48.00;44.65;;;22.70;99.90;;;;;;5052383;28;20518;-74
2023/09/11 08:55:49;;;;;;;66.70;62.65;;;22.60;99.90;;;;;;5017144;28;20108;-74
2023/09/11 08:58:17;;;;;;;56.05;52.35;;;22.70;99.90;;;;;;5052037;28;20036;-74
2023/09/11 09:00:43;;;;;;;58.40;54.70;;;23.00;99.90;;;;;;5049988;28;20044;-75
2023/09/11 09:03:09;;;;;;;51.88;48.58;;;23.20;99.90;;;;;;5052019;28;20376;-75
2023/09/11 09:05:35;;;;;;;61.40;57.42;;;23.40;99.90;;;;;;5050361;28;20032;-74
2023/09/11 09:08:02;;;;;;;96.68;91.07;;;23.70;99.90;;;;;;5052105;28;20029;-74
2023/09/11 09:10:28;;;;;;;83.88;78.75;;;23.80;99.90;;;;;;5033466;28;20044;-75
2023/09/11 09:12:55;;;;;;;65.00;60.85;;;23.80;99.90;;;;;;5050599;28;20033;-74
2023/09/11 09:15:21;;;;;;;62.72;58.83;;;23.80;99.90;;;;;;5051182;28;20188;-74
2023/09/11 09:17:48;;;;;;;79.47;74.78;;;23.60;99.90;;;;;;5052098;28;20514;-74
2023/09/11 09:20:15;;;;;;;72.50;68.07;;;23.40;99.90;;;;;;5051386;28;20498;-74
2023/09/11 09:22:54;;;;;;;66.22;62.05;;;23.30;99.90;;;;;;5052184;28;20041;-74
2023/09/11 09:25:20;;;;;;;81.25;76.63;;;23.50;99.90;;;;;;5051067;28;20036;-75
2023/09/11 09:27:46;;;;;;;86.60;81.60;;;23.80;99.90;;;;;;5051673;28;20375;-74
2023/09/11 09:30:23;;;;;;;107.35;101.55;;;24.00;99.90;;;;;;5050831;28;20032;-74
2023/09/11 09:32:49;;;;;;;94.70;89.30;;;24.30;99.90;;;;;;5035707;28;20022;-75
2023/09/11 09:35:18;;;;;;;109.03;102.70;;;24.40;99.90;;;;;;5032114;28;20467;-75
2023/09/11 09:37:52;;;;;;;115.78;109.50;;;24.50;99.90;;;;;;5051665;28;20371;-75
2023/09/11 09:40:37;;;;;;;169.25;160.40;;;24.70;99.90;;;;;;5051227;28;20049;-75
2023/09/11 09:43:05;;;;;;;207.30;196.70;;;24.60;99.90;;;;;;5051244;28;20036;-76
2023/09/11 09:45:37;;;;;;;178.55;169.30;;;24.60;99.90;;;;;;5053250;28;20036;-75
2023/09/11 09:48:16;;;;;;;166.23;157.63;;;24.70;99.90;;;;;;5055810;28;20044;-75
2023/09/11 09:50:50;;;;;;;148.07;140.43;;;24.90;99.90;;;;;;5054980;28;20025;-75
2023/09/11 09:53:33;;;;;;;177.25;168.27;;;25.00;99.90;;;;;;5053663;28;20032;-75
2023/09/11 09:56:03;;;;;;;191.57;181.88;;;25.20;99.90;;;;;;5054746;28;20029;-75
2023/09/11 09:58:30;;;;;;;221.53;210.03;;;25.30;99.90;;;;;;5055775;28;20036;-75
2023/09/11 10:00:58;;;;;;;260.65;247.23;;;25.50;99.90;;;;;;5054425;28;20049;-75
2023/09/11 10:03:24;;;;;;;226.00;214.40;;;25.60;99.90;;;;;;5053739;28;20033;-75
2023/09/11 10:05:50;;;;;;;418.95;395.50;;;25.80;99.90;;;;;;5053639;28;20383;-75
2023/09/11 10:08:16;;;;;;;457.02;432.08;;;25.80;99.90;;;;;;5053606;28;20044;-75
2023/09/11 10:10:42;;;;;;;448.75;423.95;;;26.00;99.90;;;;;;5054366;28;20032;-75
2023/09/11 10:13:13;;;;;;;465.17;439.38;;;25.80;99.90;;;;;;5054612;28;20058;-75
2023/09/11 10:15:41;;;;;;;415.25;392.35;;;25.80;99.90;;;;;;5054396;28;20040;-75
2023/09/11 10:18:09;;;;;;;360.02;341.17;;;25.80;99.90;;;;;;5054724;28;20038;-75
2023/09/11 10:20:35;;;;;;;491.77;463.52;;;25.80;99.90;;;;;;5054231;28;20048;-75
2023/09/11 10:23:02;;;;;;;384.33;363.83;;;25.60;99.90;;;;;;5054590;28;20475;-75
2023/09/11 10:25:29;;;;;;;461.67;436.38;;;25.60;99.90;;;;;;5054164;28;20036;-74
2023/09/11 10:28:02;;;;;;;437.90;413.30;;;25.70;99.90;;;;;;5054524;28;20033;-75
2023/09/11 10:30:34;;;;;;;454.00;428.23;;;25.70;99.90;;;;;;5052227;28;20375;-75
2023/09/11 10:33:00;;;;;;;458.23;431.90;;;25.80;99.90;;;;;;5052986;28;20201;-75
2023/09/11 10:35:29;;;;;;;474.10;447.02;;;26.00;99.90;;;;;;5053890;28;20081;-75
2023/09/11 10:37:56;;;;;;;564.88;530.78;;;26.10;99.90;;;;;;5052846;28;20044;-75
2023/09/11 10:40:28;;;;;;;501.08;471.70;;;26.20;99.90;;;;;;5052376;28;20049;-75
2023/09/11 10:42:54;;;;;;;505.55;476.52;;;26.20;99.90;;;;;;5052823;28;20044;-75
2023/09/11 10:45:31;;;;;;;558.85;524.38;;;26.40;99.90;;;;;;5035532;28;20040;-75
2023/09/11 10:47:58;;;;;;;571.03;536.20;;;26.60;99.90;;;;;;5052943;28;20052;-75
2023/09/11 10:50:32;;;;;;;398.27;376.73;;;26.90;99.90;;;;;;5053686;28;20025;-75
2023/09/11 10:52:58;;;;;;;377.63;357.52;;;27.10;99.90;;;;;;5054370;28;20037;-75
2023/09/11 10:55:24;;;;;;;402.20;380.60;;;26.90;99.90;;;;;;5053670;28;20029;-75
2023/09/11 10:57:57;;;;;;;409.45;387.20;;;26.80;99.90;;;;;;5051834;28;20464;-75
2023/09/11 11:00:23;;;;;;;398.25;376.92;;;27.00;99.90;;;;;;5053156;28;20052;-75
2023/09/11 11:02:50;;;;;;;382.15;361.80;;;27.20;99.90;;;;;;5052483;28;20033;-75
2023/09/11 11:05:16;;;;;;;331.80;314.55;;;27.40;99.90;;;;;;5051971;28;20033;-75
2023/09/11 11:07:42;;;;;;;350.23;331.77;;;27.50;99.90;;;;;;5052679;28;20032;-75
2023/09/11 11:10:12;;;;;;;360.83;341.67;;;27.70;99.90;;;;;;5052518;28;20471;-75
2023/09/11 11:12:40;;;;;;;467.57;440.83;;;27.80;99.90;;;;;;5054297;28;20041;-75
2023/09/11 11:15:23;;;;;;;489.30;460.77;;;27.70;99.90;;;;;;5052906;28;20048;-74
2023/09/11 11:18:09;;;;;;;459.27;433.48;;;27.70;99.90;;;;;;5053558;28;20033;-75
2023/09/11 11:20:36;;;;;;;483.38;455.52;;;27.70;99.90;;;;;;5051388;28;20392;-75
2023/09/11 11:23:12;;;;;;;477.77;450.40;;;27.60;99.90;;;;;;5035375;28;20368;-75
2023/09/11 11:25:41;;;;;;;454.10;427.85;;;27.50;99.90;;;;;;5053517;28;20037;-75
2023/09/11 11:28:17;;;;;;;468.13;441.57;;;27.40;99.90;;;;;;5053692;28;20037;-75
2023/09/11 11:30:44;;;;;;;462.55;436.65;;;27.40;99.90;;;;;;5052537;28;20402;-75
2023/09/11 11:33:15;;;;;;;501.73;472.23;;;27.40;99.90;;;;;;5035762;28;20056;-75
2023/09/11 11:35:44;;;;;;;465.52;439.02;;;27.50;99.90;;;;;;5036095;28;20052;-75
2023/09/11 11:38:15;;;;;;;437.00;412.50;;;27.60;99.90;;;;;;5053417;28;20111;-75
2023/09/11 11:40:41;;;;;;;445.08;420.00;;;27.40;99.90;;;;;;5052930;28;20505;-76
2023/09/11 11:43:08;;;;;;;448.70;423.23;;;27.50;99.90;;;;;;5052973;28;20025;-74
2023/09/11 11:45:36;;;;;;;477.80;450.33;;;27.60;99.90;;;;;;5051126;28;20029;-73
2023/09/11 11:48:02;;;;;;;476.33;449.20;;;27.70;99.90;;;;;;5052909;28;20041;-73
2023/09/11 11:50:30;;;;;;;500.38;471.75;;;27.80;99.90;;;;;;5051095;28;20029;-73
2023/09/11 11:52:57;;;;;;;420.20;397.13;;;28.00;99.90;;;;;;5051739;28;20112;-74
2023/09/11 11:55:24;;;;;;;443.77;419.02;;;28.00;99.90;;;;;;5051297;28;20032;-74
2023/09/11 11:57:52;;;;;;;493.13;464.77;;;28.10;99.90;;;;;;5052715;28;20044;-74
2023/09/11 12:00:18;;;;;;;427.33;403.52;;;28.10;99.90;;;;;;5052036;28;20045;-74
2023/09/11 12:02:44;;;;;;;448.77;423.70;;;28.20;99.90;;;;;;5052585;28;20047;-74
2023/09/11 12:05:14;;;;;;;459.92;433.45;;;28.30;99.90;;;;;;5052223;28;20468;-74
2023/09/11 12:07:40;;;;;;;467.35;440.40;;;28.30;99.90;;;;;;5052526;28;20044;-74
2023/09/11 12:10:10;;;;;;;387.95;366.33;;;28.40;99.90;;;;;;5051300;28;20036;-75
2023/09/11 12:12:42;;;;;;;383.63;362.45;;;28.50;99.90;;;;;;5031261;28;20040;-74
2023/09/11 12:15:10;;;;;;;398.00;376.25;;;28.40;99.90;;;;;;5031689;28;20108;-74
2023/09/11 12:17:45;;;;;;;418.63;395.00;;;28.50;99.90;;;;;;5051279;28;20029;-74